Terminal Aerodrome Forecast
Issued by NWS Buffalo, NY

Home | Current Version | Previous Version | Text Only | Print | Product List | Glossary On
Versions: 1 2 3 4 5 6 7 8 9 10 11 12 13 14 15 16 17 18 19 20 21 22 23 24 25 26 27 28
000
FTUS41 KBUF 110310 AAA
TAFART
TAF AMD
KART 110310Z 1103/1124 VRB03KT P6SM BKN040
     FM110900 VRB03KT P6SM VCSH BKN040
     FM111400 20006KT 2SM -SHSN OVC020
     FM111700 19008KT P6SM BKN050
     FM112300 16007KT 4SM -SN OVC040=

USA.gov is the U.S. government's official web portal to all federal, state and local government web resources and services.